createdAt,value
2019-05-18T00:01:01.652Z,19.71
2019-05-18T00:03:32.433Z,19.71
2019-05-18T00:06:02.675Z,19.67
2019-05-18T00:08:34.212Z,19.73
2019-05-18T00:11:04.417Z,19.63
2019-05-18T00:13:34.595Z,19.70
2019-05-18T00:16:04.763Z,19.65
2019-05-18T00:18:35.366Z,19.70
2019-05-18T00:21:05.539Z,19.64
2019-05-18T00:23:36.321Z,19.46
2019-05-18T00:26:06.467Z,19.59
2019-05-18T00:28:36.674Z,19.47
2019-05-18T00:31:06.942Z,19.48
2019-05-18T00:43:51.100Z,19.25
2019-05-18T00:46:21.715Z,19.25
2019-05-18T00:48:52.030Z,19.28
2019-05-18T00:51:23.610Z,19.20
2019-05-18T00:55:09.189Z,19.24
2019-05-18T01:01:58.655Z,18.89
2019-05-18T01:04:30.410Z,19.06
2019-05-18T01:07:00.686Z,18.97
2019-05-18T01:09:31.322Z,18.77
2019-05-18T01:12:01.839Z,18.98
2019-05-18T01:14:32.176Z,18.82
2019-05-18T01:17:02.348Z,18.69
2019-05-18T01:19:33.412Z,18.81
2019-05-18T01:22:03.654Z,18.81
2019-05-18T01:24:33.916Z,18.70
2019-05-18T01:27:04.042Z,18.74
2019-05-18T01:29:34.252Z,18.74
2019-05-18T01:32:04.908Z,18.62
2019-05-18T01:34:35.100Z,18.54
2019-05-18T01:37:05.237Z,18.65
2019-05-18T01:39:36.798Z,18.66
2019-05-18T01:42:07.501Z,18.61
2019-05-18T01:44:37.640Z,18.74
2019-05-18T01:47:07.981Z,18.58
2019-05-18T01:49:38.151Z,18.46
2019-05-18T01:52:09.857Z,18.57
2019-05-18T01:54:41.202Z,18.51
2019-05-18T02:05:01.518Z,18.47
2019-05-18T02:07:36.660Z,18.59
2019-05-18T02:10:08.151Z,18.35
2019-05-18T02:12:38.755Z,18.54
2019-05-18T02:15:10.029Z,18.50
2019-05-18T02:17:40.171Z,18.34
2019-05-18T02:20:10.533Z,18.50
2019-05-18T02:22:40.794Z,18.55
2019-05-18T02:25:11.819Z,18.50
2019-05-18T02:27:41.964Z,18.38
2019-05-18T02:30:17.244Z,18.36
2019-05-18T02:32:45.573Z,18.29
2019-05-18T02:35:16.154Z,18.40
2019-05-18T02:37:46.333Z,18.32
2019-05-18T02:40:16.947Z,18.42
2019-05-18T02:42:47.087Z,18.32
2019-05-18T02:45:18.641Z,18.41
2019-05-18T02:47:48.837Z,18.37
2019-05-18T02:50:18.975Z,18.36
2019-05-18T02:52:50.042Z,18.30
2019-05-18T02:55:20.645Z,18.35
2019-05-18T02:57:50.896Z,18.40
2019-05-18T03:00:21.297Z,18.58
2019-05-18T03:02:51.474Z,18.23
2019-05-18T03:05:21.647Z,18.30
2019-05-18T03:08:51.276Z,18.29
2019-05-18T03:12:46.732Z,18.25
2019-05-18T03:16:15.271Z,18.26
2019-05-18T03:19:19.573Z,18.26
2019-05-18T03:22:21.041Z,18.35
2019-05-18T03:25:56.999Z,18.29
2019-05-18T03:36:55.751Z,18.41
2019-05-18T03:43:49.446Z,18.27
2019-05-18T03:51:46.106Z,18.38
2019-05-18T03:54:18.122Z,18.49
2019-05-18T03:56:49.263Z,18.54
2019-05-18T03:59:19.418Z,18.32
2019-05-18T04:02:13.893Z,18.42
2019-05-18T04:12:00.367Z,18.35
2019-05-18T04:14:31.403Z,18.50
2019-05-18T04:17:01.968Z,18.47
2019-05-18T04:19:45.415Z,18.40
2019-05-18T04:30:42.887Z,18.48
2019-05-18T04:33:14.729Z,18.61
2019-05-18T04:35:44.870Z,18.59
2019-05-18T04:38:15.043Z,18.61
2019-05-18T04:40:45.294Z,18.66
2019-05-18T04:43:15.884Z,18.57
2019-05-18T04:45:46.057Z,18.64
2019-05-18T04:48:16.200Z,18.67
2019-05-18T04:50:46.368Z,18.74
2019-05-18T04:53:16.638Z,18.72
2019-05-18T04:55:48.040Z,18.67
2019-05-18T04:58:18.314Z,18.59
2019-05-18T05:00:48.445Z,18.92
2019-05-18T05:03:18.625Z,18.69
2019-05-18T05:05:49.401Z,18.67
2019-05-18T05:08:19.982Z,18.80
2019-05-18T05:10:50.249Z,18.81
2019-05-18T05:13:20.486Z,18.71
2019-05-18T05:15:50.648Z,18.90
2019-05-18T05:18:20.898Z,18.93
2019-05-18T05:20:51.568Z,18.87
2019-05-18T05:23:21.731Z,18.82
2019-05-18T05:25:52.404Z,18.90
2019-05-18T05:28:22.557Z,18.83
2019-05-18T05:30:52.684Z,18.93
2019-05-18T05:33:22.924Z,19.05
2019-05-18T05:35:53.590Z,18.95
2019-05-18T05:38:23.726Z,19.27
2019-05-18T05:40:55.190Z,19.06
2019-05-18T05:43:25.362Z,19.02
2019-05-18T05:45:55.509Z,18.96
2019-05-18T05:48:25.767Z,18.93
2019-05-18T05:50:56.472Z,19.16
2019-05-18T05:53:26.844Z,19.16
2019-05-18T05:55:58.301Z,19.18
2019-05-18T05:58:29.955Z,19.46
2019-05-18T06:01:00.653Z,19.07
2019-05-18T06:03:30.920Z,19.18
2019-05-18T06:06:39.560Z,19.31
2019-05-18T06:16:25.449Z,19.57
2019-05-18T06:18:55.653Z,19.59
2019-05-18T06:21:25.847Z,19.46
2019-05-18T06:23:56.382Z,19.60
2019-05-18T06:33:48.875Z,19.75
2019-05-18T06:36:20.385Z,19.64
2019-05-18T06:38:50.596Z,19.70
2019-05-18T06:41:20.759Z,19.90
2019-05-18T06:43:51.030Z,19.97
2019-05-18T06:47:01.320Z,19.76
2019-05-18T06:50:18.576Z,19.94
2019-05-18T06:53:13.989Z,20.13
2019-05-18T06:56:18.089Z,20.08
2019-05-18T06:58:54.621Z,19.81
2019-05-18T07:01:24.816Z,19.96
2019-05-18T07:03:55.121Z,19.96
2019-05-18T07:06:25.431Z,20.08
2019-05-18T07:08:57.074Z,20.07
2019-05-18T07:11:28.022Z,20.13
2019-05-18T07:13:58.185Z,20.12
2019-05-18T07:16:28.337Z,19.92
2019-05-18T07:18:58.482Z,19.94
2019-05-18T07:21:28.773Z,20.12
2019-05-18T07:23:59.419Z,20.27
2019-05-18T07:26:29.567Z,20.09
2019-05-18T07:29:05.538Z,20.12
2019-05-18T07:31:33.799Z,20.03
2019-05-18T07:34:04.004Z,20.41
2019-05-18T07:36:34.170Z,20.40
2019-05-18T07:39:06.057Z,20.56
2019-05-18T07:41:46.351Z,20.41
2019-05-18T07:44:08.553Z,20.64
2019-05-18T07:46:39.173Z,20.62
2019-05-18T07:49:09.303Z,20.96
2019-05-18T07:51:39.510Z,20.96
2019-05-18T07:54:10.218Z,21.18
2019-05-18T07:56:40.449Z,21.35
2019-05-18T07:59:12.333Z,21.42
2019-05-18T08:01:43.753Z,21.51
2019-05-18T08:04:14.366Z,21.57
2019-05-18T08:06:46.673Z,21.73
2019-05-18T08:09:16.827Z,21.73
2019-05-18T08:11:47.135Z,21.80
2019-05-18T08:14:17.763Z,22.13
2019-05-18T08:16:48.396Z,22.09
2019-05-18T08:19:18.960Z,22.17
2019-05-18T08:22:39.020Z,22.12
2019-05-18T08:25:57.677Z,21.99
2019-05-18T08:28:56.358Z,22.34
2019-05-18T08:31:27.495Z,22.49
2019-05-18T08:33:57.780Z,22.50
2019-05-18T08:36:27.966Z,22.50
2019-05-18T08:38:58.665Z,22.59
2019-05-18T08:45:35.277Z,22.84
2019-05-18T08:51:10.516Z,22.47
2019-05-18T08:53:42.006Z,22.60
2019-05-18T08:56:12.196Z,22.79
2019-05-18T08:58:42.389Z,22.41
2019-05-18T09:01:15.734Z,22.58
2019-05-18T09:03:46.461Z,22.54
2019-05-18T09:06:16.618Z,22.46
2019-05-18T09:08:48.215Z,22.88
2019-05-18T09:11:20.198Z,23.15
2019-05-18T09:13:50.425Z,22.97
2019-05-18T09:16:20.581Z,22.90
2019-05-18T09:18:50.778Z,23.12
2019-05-18T09:21:20.936Z,22.98
2019-05-18T09:23:53.172Z,22.97
2019-05-18T09:26:23.349Z,22.99
2019-05-18T09:28:53.542Z,23.21
2019-05-18T09:31:23.807Z,22.99
2019-05-18T09:38:00.516Z,23.61
2019-05-18T09:44:20.496Z,23.86
2019-05-18T09:46:51.078Z,24.05
2019-05-18T09:49:21.273Z,24.37
2019-05-18T09:51:51.419Z,24.79
2019-05-18T09:55:06.692Z,25.15
2019-05-18T10:01:52.020Z,25.42
2019-05-18T10:04:23.939Z,25.18
2019-05-18T10:06:54.208Z,24.86
2019-05-18T10:09:24.879Z,24.79
2019-05-18T10:11:55.076Z,24.36
2019-05-18T10:14:25.231Z,24.78
2019-05-18T10:16:55.396Z,25.01
2019-05-18T10:19:25.704Z,25.34
2019-05-18T10:21:56.466Z,25.50
2019-05-18T10:24:27.168Z,25.44
2019-05-18T10:26:57.365Z,25.35
2019-05-18T10:29:27.565Z,25.39
2019-05-18T10:31:58.228Z,25.44
2019-05-18T10:34:28.378Z,25.40
2019-05-18T10:36:58.542Z,25.61
2019-05-18T10:39:29.917Z,26.06
2019-05-18T10:42:00.479Z,26.13
2019-05-18T10:44:31.566Z,25.96
2019-05-18T10:47:02.756Z,25.94
2019-05-18T10:49:32.939Z,26.25
2019-05-18T10:52:03.232Z,26.52
2019-05-18T10:54:36.079Z,26.39
2019-05-18T10:57:06.226Z,25.93
2019-05-18T10:59:36.415Z,25.85
2019-05-18T11:02:06.575Z,26.07
2019-05-18T11:04:40.506Z,26.07
2019-05-18T11:07:10.709Z,26.12
2019-05-18T11:09:41.056Z,26.27
2019-05-18T11:12:12.312Z,26.43
2019-05-18T11:14:43.016Z,26.68
2019-05-18T11:17:13.193Z,26.93
2019-05-18T11:19:44.730Z,27.16
2019-05-18T11:22:14.901Z,27.62
2019-05-18T11:24:45.461Z,27.86
2019-05-18T11:27:15.605Z,28.12
2019-05-18T11:29:46.241Z,28.54
2019-05-18T11:32:16.385Z,28.96
2019-05-18T11:34:46.546Z,29.48
2019-05-18T11:37:16.798Z,29.56
2019-05-18T11:39:47.436Z,30.18
2019-05-18T11:42:17.563Z,29.80
2019-05-18T11:44:48.315Z,30.17
2019-05-18T11:47:18.479Z,30.00
2019-05-18T11:49:49.227Z,29.83
2019-05-18T11:52:19.427Z,30.05
2019-05-18T11:54:49.661Z,30.42
2019-05-18T11:57:20.680Z,30.56
2019-05-18T11:59:52.991Z,30.38
2019-05-18T12:02:24.675Z,30.17
2019-05-18T12:04:55.849Z,29.97
2019-05-18T12:07:26.115Z,29.66
2019-05-18T12:10:03.069Z,29.18
2019-05-18T12:16:32.973Z,29.41
2019-05-18T12:19:03.938Z,29.32
2019-05-18T12:21:37.882Z,29.05
2019-05-18T12:24:15.289Z,29.06
2019-05-18T12:26:55.537Z,28.96
2019-05-18T12:29:30.187Z,29.19
2019-05-18T12:32:00.446Z,29.49
2019-05-18T12:34:31.148Z,30.14
2019-05-18T12:37:02.336Z,30.10
2019-05-18T12:39:32.489Z,30.74
2019-05-18T12:42:02.652Z,30.93
2019-05-18T12:44:32.874Z,31.34
2019-05-18T12:47:03.631Z,31.80
2019-05-18T12:49:33.731Z,31.57
2019-05-18T12:59:43.992Z,30.72
2019-05-18T13:02:59.617Z,30.44
2019-05-18T13:05:59.933Z,30.12
2019-05-18T13:12:11.736Z,30.83
2019-05-18T13:22:08.468Z,31.58
2019-05-18T13:25:12.028Z,30.98
2019-05-18T13:28:15.841Z,30.59
2019-05-18T13:31:30.386Z,30.30
2019-05-18T13:34:00.545Z,29.50
2019-05-18T13:36:30.735Z,29.29
2019-05-18T13:39:00.890Z,29.53
2019-05-18T13:41:32.514Z,29.64
2019-05-18T13:44:52.965Z,29.59
2019-05-18T13:48:03.234Z,29.76
2019-05-18T13:53:55.105Z,29.64
2019-05-18T13:56:25.713Z,29.60
2019-05-18T13:58:55.882Z,30.07
2019-05-18T14:01:26.003Z,30.49
2019-05-18T14:03:56.161Z,30.71
2019-05-18T14:06:27.172Z,31.18
2019-05-18T14:08:57.750Z,31.71
2019-05-18T14:11:27.915Z,32.36
2019-05-18T14:14:52.964Z,32.65
2019-05-18T14:17:50.359Z,33.25
2019-05-18T14:20:53.092Z,33.57
2019-05-18T14:23:30.539Z,34.46
2019-05-18T14:26:00.697Z,34.07
2019-05-18T14:28:30.863Z,34.14
2019-05-18T14:31:01.499Z,34.20
2019-05-18T14:33:31.652Z,34.64
2019-05-18T14:36:01.827Z,35.25
2019-05-18T14:38:31.984Z,34.48
2019-05-18T14:41:02.711Z,35.85
2019-05-18T14:43:35.820Z,36.59
2019-05-18T14:46:07.126Z,36.29
2019-05-18T14:48:37.364Z,35.47
2019-05-18T14:51:07.999Z,34.57
2019-05-18T14:53:39.251Z,33.94
2019-05-18T14:56:09.461Z,33.09
2019-05-18T14:58:39.614Z,32.30
2019-05-18T15:01:11.069Z,31.70
2019-05-18T15:03:41.771Z,31.38
2019-05-18T15:06:12.128Z,31.46
2019-05-18T15:08:43.529Z,31.06
2019-05-18T15:11:13.719Z,30.41
2019-05-18T15:13:44.453Z,30.66
2019-05-18T15:16:14.581Z,30.41
2019-05-18T15:18:44.823Z,30.15
2019-05-18T15:21:14.999Z,30.08
2019-05-18T15:23:45.687Z,30.08
2019-05-18T15:29:57.481Z,29.81
2019-05-18T15:33:04.419Z,29.59
2019-05-18T15:36:15.469Z,29.58
2019-05-18T15:38:45.672Z,29.40
2019-05-18T15:41:16.352Z,29.16
2019-05-18T15:43:46.624Z,29.09
2019-05-18T15:46:16.775Z,28.87
2019-05-18T15:48:47.631Z,28.85
2019-05-18T15:51:18.280Z,28.72
2019-05-18T15:53:48.511Z,28.45
2019-05-18T15:56:18.717Z,28.36
2019-05-18T15:58:48.893Z,28.38
2019-05-18T16:01:19.482Z,28.19
2019-05-18T16:03:50.474Z,28.23
2019-05-18T16:06:23.323Z,28.10
2019-05-18T16:08:54.260Z,28.13
2019-05-18T16:11:24.434Z,27.98
2019-05-18T16:13:54.970Z,28.01
2019-05-18T16:16:25.353Z,28.10
2019-05-18T16:18:55.515Z,27.87
2019-05-18T16:21:25.663Z,27.93
2019-05-18T16:23:56.313Z,27.83
2019-05-18T16:26:27.033Z,27.81
2019-05-18T16:28:57.210Z,27.89
2019-05-18T16:31:27.365Z,27.88
2019-05-18T16:33:57.525Z,27.90
2019-05-18T16:36:27.782Z,27.92
2019-05-18T16:39:48.770Z,27.97
2019-05-18T16:46:50.304Z,27.93
2019-05-18T16:53:50.812Z,27.89
2019-05-18T16:56:34.895Z,27.75
2019-05-18T16:59:06.596Z,27.68
2019-05-18T17:01:38.668Z,27.72
2019-05-18T17:04:08.945Z,27.63
2019-05-18T17:06:39.268Z,27.56
2019-05-18T17:09:10.451Z,27.48
2019-05-18T17:11:41.344Z,27.50
2019-05-18T17:14:11.507Z,27.42
2019-05-18T17:16:43.028Z,27.33
2019-05-18T17:19:13.172Z,27.25
2019-05-18T17:21:43.889Z,27.15
2019-05-18T17:24:14.024Z,27.20
2019-05-18T17:26:52.926Z,27.06
2019-05-18T17:29:17.583Z,27.06
2019-05-18T17:31:49.516Z,27.04
2019-05-18T17:34:19.677Z,26.93
2019-05-18T17:36:52.526Z,26.80
2019-05-18T17:39:21.853Z,26.78
2019-05-18T17:41:52.512Z,26.73
2019-05-18T17:44:22.658Z,26.65
2019-05-18T17:46:54.051Z,26.52
2019-05-18T17:49:26.961Z,26.41
2019-05-18T17:53:10.061Z,26.39
2019-05-18T17:56:15.460Z,26.43
2019-05-18T18:02:23.955Z,26.21
2019-05-18T18:04:54.703Z,26.17
2019-05-18T18:07:24.845Z,26.11
2019-05-18T18:09:55.650Z,26.04
2019-05-18T18:12:44.323Z,26.00
2019-05-18T18:22:58.037Z,25.83
2019-05-18T18:25:28.262Z,25.78
2019-05-18T18:27:58.388Z,25.89
2019-05-18T18:30:28.606Z,25.80
2019-05-18T18:32:59.315Z,25.78
2019-05-18T18:35:30.584Z,25.83
2019-05-18T18:38:00.780Z,25.66
2019-05-18T18:40:31.129Z,25.67
2019-05-18T18:43:01.852Z,25.64
2019-05-18T18:46:42.213Z,25.66
2019-05-18T18:50:01.732Z,25.54
2019-05-18T18:56:20.374Z,25.47
2019-05-18T18:58:50.571Z,25.35
2019-05-18T19:01:20.743Z,25.35
2019-05-18T19:03:50.959Z,25.33
2019-05-18T19:06:21.638Z,25.35
2019-05-18T19:08:53.003Z,25.36
2019-05-18T19:11:24.481Z,25.28
2019-05-18T19:13:54.727Z,25.26
2019-05-18T19:16:25.326Z,25.18
2019-05-18T19:18:55.482Z,25.15
2019-05-18T19:21:25.731Z,25.11
2019-05-18T19:23:55.902Z,25.12
2019-05-18T19:26:26.072Z,25.04
2019-05-18T19:28:57.723Z,25.03
2019-05-18T19:31:27.881Z,25.02
2019-05-18T19:33:58.050Z,25.05
2019-05-18T19:36:29.202Z,24.97
2019-05-18T19:38:59.924Z,25.01
2019-05-18T19:41:30.123Z,24.96
2019-05-18T19:44:00.306Z,24.95
2019-05-18T19:46:30.475Z,24.82
2019-05-18T19:49:00.656Z,24.86
2019-05-18T19:51:31.353Z,24.91
2019-05-18T19:54:01.597Z,24.88
2019-05-18T19:56:39.260Z,24.78
2019-05-18T19:59:03.596Z,24.84
2019-05-18T20:01:34.279Z,24.85
2019-05-18T20:04:05.749Z,24.83
2019-05-18T20:06:35.929Z,24.75
2019-05-18T20:09:06.901Z,24.74
2019-05-18T20:11:38.753Z,24.75
2019-05-18T20:14:08.933Z,24.72
2019-05-18T20:16:40.194Z,24.72
2019-05-18T20:19:10.876Z,24.70
2019-05-18T20:21:41.493Z,24.66
2019-05-18T20:24:11.634Z,24.66
2019-05-18T20:26:41.866Z,24.66
2019-05-18T20:29:41.362Z,24.59
2019-05-18T20:32:33.582Z,24.55
2019-05-18T20:38:45.690Z,24.37
2019-05-18T20:41:15.840Z,24.14
2019-05-18T20:43:46.545Z,24.02
2019-05-18T20:46:17.109Z,24.17
2019-05-18T20:48:47.447Z,24.03
2019-05-18T20:51:17.590Z,24.12
2019-05-18T20:53:49.208Z,24.07
2019-05-18T20:56:19.797Z,23.95
2019-05-18T20:58:50.041Z,23.97
2019-05-18T21:01:21.162Z,23.85
2019-05-18T21:03:51.433Z,23.82
2019-05-18T21:06:22.502Z,23.73
2019-05-18T21:08:52.625Z,23.62
2019-05-18T21:11:24.107Z,23.49
2019-05-18T21:13:57.864Z,23.26
2019-05-18T21:16:28.549Z,23.16
2019-05-18T21:18:58.690Z,23.21
2019-05-18T21:21:28.883Z,23.04
2019-05-18T21:23:59.986Z,23.04
2019-05-18T21:26:31.072Z,22.90
2019-05-18T21:29:01.247Z,22.97
2019-05-18T21:31:32.392Z,22.90
2019-05-18T21:34:02.547Z,22.86
2019-05-18T21:36:33.375Z,22.79
2019-05-18T21:39:03.738Z,22.72
2019-05-18T21:41:34.643Z,22.75
2019-05-18T21:44:05.083Z,22.63
2019-05-18T21:46:38.945Z,22.63
2019-05-18T21:49:07.561Z,22.67
2019-05-18T21:51:37.735Z,22.66
2019-05-18T21:54:07.875Z,22.56
2019-05-18T21:56:38.456Z,22.55
2019-05-18T21:59:12.269Z,22.49
2019-05-18T22:01:41.849Z,22.53
2019-05-18T22:04:12.053Z,22.46
2019-05-18T22:06:42.665Z,22.41
2019-05-18T22:09:12.840Z,22.38
2019-05-18T22:11:43.075Z,22.41
2019-05-18T22:14:14.898Z,22.36
2019-05-18T22:16:45.508Z,22.42
2019-05-18T22:19:16.159Z,22.38
2019-05-18T22:21:46.335Z,22.38
2019-05-18T22:24:16.496Z,22.35
2019-05-18T22:26:46.646Z,22.29
2019-05-18T22:29:16.911Z,22.25
2019-05-18T22:31:48.629Z,22.31
2019-05-18T22:34:18.806Z,22.34
2019-05-18T22:36:48.956Z,22.34
2019-05-18T22:39:19.101Z,22.29
2019-05-18T22:41:49.292Z,22.31
2019-05-18T22:44:19.935Z,22.34
2019-05-18T22:46:50.214Z,22.30
2019-05-18T22:49:20.390Z,22.27
2019-05-18T22:51:50.596Z,22.24
2019-05-18T22:57:57.446Z,22.27
2019-05-18T23:00:41.778Z,22.23
2019-05-18T23:03:23.873Z,22.35
2019-05-18T23:05:54.038Z,22.31
2019-05-18T23:08:24.606Z,22.23
2019-05-18T23:10:54.810Z,22.19
2019-05-18T23:13:26.867Z,22.05
2019-05-18T23:15:57.868Z,22.23
2019-05-18T23:18:29.092Z,22.25
2019-05-18T23:20:59.654Z,22.23
2019-05-18T23:23:29.818Z,22.17
2019-05-18T23:26:21.123Z,21.92
2019-05-18T23:29:40.881Z,21.96
2019-05-18T23:35:39.097Z,22.13
2019-05-18T23:38:09.275Z,22.17
2019-05-18T23:40:39.401Z,22.16
2019-05-18T23:43:09.559Z,22.15
2019-05-18T23:45:40.179Z,22.23
2019-05-18T23:48:11.906Z,22.22
2019-05-18T23:50:42.037Z,22.18
2019-05-18T23:53:12.189Z,22.07
2019-05-18T23:55:42.416Z,22.08
2019-05-18T23:58:13.032Z,22.05
